Solana — WCY5602 — position and weather

sailwx.info

Track history (hours):
 
Tides and Currents Weather Stations Pressure Air Temp Water Temp Dewpoint Dewpoint Depression Visibility Wind Speed Wind Dir Waves Ship Positions

Solana

Owner: TAURUS MARINE, SAN FRANCISCO, CA. More information available from US FCC via Universal Licensing System and Coast Guard Vessel Documentation Center.

Last reported at 2015-Jul-03 18:19 UTC. Time now 2015-Jul-04 08:28 UTC.
Position N 47°40' W 122°24'.

Type: Towing. MMSI: 366969740.

Date/timePositionNaut miles runAvg speedWind from/ knotsBaromVisibWave heightAir tempDewpointWater temp
2015-Jul-03 18:19N 47°40' W 122°24'4 4.7
2015-Jul-03 17:28N 47°36' W 122°23'2 0.6
2015-Jul-03 14:33N 47°35' W 122°22'6 6.2
2015-Jul-03 13:33N 47°40' W 122°26'2 2.3
2015-Jul-03 12:33N 47°40' W 122°23'4 4.3
2015-Jul-03 11:33N 47°39' W 122°16'1 0.1
2015-Jul-03 03:33N 47°39' W 122°18'1 1.1
2015-Jul-03 02:26N 47°39' W 122°20'3 3.7
2015-Jul-03 01:32N 47°40' W 122°24'6 6.5
2015-Jul-03 00:33N 47°34' W 122°27'8 8.4
2015-Jul-02 23:33N 47°26' W 122°31'8 8.2
2015-Jul-02 22:33N 47°18' W 122°29'2 2.2
2015-Jul-02 21:33N 47°17' W 122°26'8 7.6
2015-Jul-02 20:33N 47°24' W 122°32'8 7.9
2015-Jul-02 19:33N 47°31' W 122°29'9 8.6
2015-Jul-02 18:33N 47°40' W 122°27'3 2.2
2015-Jul-02 17:20N 47°40' W 122°23'2 1.3
2015-Jul-02 15:33N 47°39' W 122°20'0 0.0
2015-Jul-01 23:33N 47°39' W 122°20'3 2.7
2015-Jul-01 22:33N 47°39' W 122°16'0 0.0
2015-Jul-01 21:33N 47°39' W 122°16'0 0.0
2015-Jul-01 20:33N 47°39' W 122°16'0 0.1
2015-Jul-01 19:32N 47°39' W 122°16'0 0.0
2015-Jul-01 18:34N 47°39' W 122°16'0 0.1
2015-Jul-01 17:33N 47°38' W 122°16'0 0.0
2015-Jul-01 16:33N 47°38' W 122°16'0 0.2
2015-Jul-01 15:33N 47°38' W 122°15'0 0.1
2015-Jul-01 14:33N 47°38' W 122°15'1 0.6
2015-Jul-01 13:33N 47°39' W 122°16'1 1.3
2015-Jul-01 12:33N 47°39' W 122°18'2 1.5
2015-Jul-01 11:23N 47°39' W 122°20'0 0.0
2015-Jul-01 10:33N 47°39' W 122°20'3 3.0
2015-Jul-01 09:33N 47°39' W 122°16'2 2.1
2015-Jul-01 08:32N 47°39' W 122°19'3 3.3
2015-Jul-01 07:33N 47°40' W 122°24'3 2.5
2015-Jul-01 06:33N 47°38' W 122°27'8 7.5
2015-Jul-01 05:33N 47°31' W 122°29'8 8.2
2015-Jul-01 04:33N 47°23' W 122°32'9 8.8
2015-Jul-01 03:30N 47°14' W 122°34'6 6.5
2015-Jul-01 02:33N 47°09' W 122°38'0 0.0
2015-Jul-01 00:19N 47°09' W 122°38'0 0.0
2015-Jun-30 23:33N 47°09' W 122°38'0 0.0
2015-Jun-30 22:25N 47°09' W 122°38'0 0.0
2015-Jun-30 21:33N 47°09' W 122°38'0 0.0
2015-Jun-30 20:25N 47°09' W 122°38'0 0.0
2015-Jun-30 19:33N 47°09' W 122°38'1 0.2
2015-Jun-30 17:20N 47°08' W 122°39'2 3.0
2015-Jun-30 16:32N 47°10' W 122°38'6 6.5
2015-Jun-30 15:33N 47°16' W 122°33'6 6.0
2015-Jun-30 14:36N 47°22' W 122°33'0 8.1
2015-Jun-30 14:33N 47°22' W 122°32'5 7.7
2015-Jun-30 13:56N 47°27' W 122°32'3 7.6
2015-Jun-30 13:33N 47°29' W 122°30'1 8.1
2015-Jun-30 13:26N 47°30' W 122°29'7 8.0
2015-Jun-30 12:33N 47°37' W 122°28'0 8.5
2015-Jun-30 12:30N 47°37' W 122°28'4 4.1
2015-Jun-30 11:33N 47°40' W 122°24'0 0.2
2015-Jun-30 11:29N 47°40' W 122°24'4 4.6
2015-Jun-30 10:33N 47°39' W 122°18'0 6.2
2015-Jun-30 10:29N 47°39' W 122°17'2 1.8
2015-Jun-30 09:29N 47°39' W 122°20'0 1.9
2015-Jun-30 09:13N 47°39' W 122°20'0 0.0
2015-Jun-30 08:33N 47°39' W 122°20'0 0.0
2015-Jun-30 08:33N 47°39' W 122°20'0 0.0
2015-Jun-30 07:33N 47°39' W 122°20'0 0.0
2015-Jun-30 07:33N 47°39' W 122°20'0 0.0
2015-Jun-30 06:33N 47°39' W 122°20'0 0.0
2015-Jun-30 06:33N 47°39' W 122°20'0 0.0
2015-Jun-30 06:08N 47°39' W 122°20'0 0.0
2015-Jun-30 05:33N 47°39' W 122°20'0 0.0
2015-Jun-30 04:25N 47°39' W 122°20'0 0.0
2015-Jun-30 04:22N 47°39' W 122°20'0 0.0
2015-Jun-30 03:33N 47°39' W 122°20'0 0.0
2015-Jun-30 03:31N 47°39' W 122°20'0 0.0
2015-Jun-30 02:33N 47°39' W 122°20'0 0.0
2015-Jun-30 02:31N 47°39' W 122°20'0 0.0
2015-Jun-30 01:33N 47°39' W 122°20'0 0.0
2015-Jun-30 01:30N 47°39' W 122°20'0 0.0
2015-Jun-30 00:33N 47°39' W 122°20'0 0.1
2015-Jun-30 00:29N 47°39' W 122°20'0 0.0
2015-Jun-29 23:33N 47°39' W 122°20'0 0.3
2015-Jun-29 23:32N 47°39' W 122°20'0 0.0
2015-Jun-29 22:33N 47°39' W 122°20'0 0.0
2015-Jun-29 22:19N 47°39' W 122°20'0 0.5
2015-Jun-29 21:33N 47°39' W 122°20'1 4.2
2015-Jun-29 21:22N 47°39' W 122°19'2 2.2
2015-Jun-29 20:34N 47°39' W 122°16'0 4.6
2015-Jun-29 20:33N 47°39' W 122°16'0 0.1
2015-Jun-29 19:34N 47°39' W 122°16'0 0.2
2015-Jun-29 19:32N 47°39' W 122°16'0 0.3
2015-Jun-29 18:31N 47°39' W 122°16'0 0.0
2015-Jun-29 18:27N 47°39' W 122°16'0 0.0
2015-Jun-29 17:32N 47°39' W 122°16'0 0.6
2015-Jun-29 17:26N 47°39' W 122°16'3 3.0
2015-Jun-29 16:33N 47°39' W 122°20'0 0.0
2015-Jun-29 16:32N 47°39' W 122°20'0 0.0
2015-Jun-29 15:33N 47°39' W 122°20'0 0.0
2015-Jun-29 15:32N 47°39' W 122°20'0 0.0
2015-Jun-29 14:33N 47°39' W 122°20'0 0.0
2015-Jun-29 14:32N 47°39' W 122°20'0 0.0
2015-Jun-29 13:33N 47°39' W 122°20'0 0.0
2015-Jun-29 13:32N 47°39' W 122°20'0 0.0
2015-Jun-29 12:31N 47°39' W 122°20'0 0.0
2015-Jun-29 12:31N 47°39' W 122°20'0 0.0
2015-Jun-29 11:33N 47°39' W 122°20'0 0.0
2015-Jun-29 11:31N 47°39' W 122°20'0 0.0
2015-Jun-29 10:32N 47°39' W 122°20'0 0.0
2015-Jun-29 10:31N 47°39' W 122°20'0 0.0
2015-Jun-29 09:33N 47°39' W 122°20'0 0.0
2015-Jun-29 09:31N 47°39' W 122°20'0 0.0
2015-Jun-29 08:33N 47°39' W 122°20'0 0.1
2015-Jun-29 08:26N 47°39' W 122°20'0 0.0
2015-Jun-29 01:31N 47°39' W 122°20'0 0.0
2015-Jun-29 00:33N 47°39' W 122°20'2 0.4
2015-Jun-28 19:29N 47°39' W 122°17'2 1.7
2015-Jun-28 18:33N 47°38' W 122°15'2 1.5
2015-Jun-28 17:33N 47°39' W 122°17'2 0.2
2015-Jun-28 05:15N 47°39' W 122°20'0 0.0
2015-Jun-28 04:47N 47°39' W 122°20'0 0.0
2015-Jun-28 04:33N 47°39' W 122°20'0 0.0
2015-Jun-28 04:31N 47°39' W 122°20'0 0.0
2015-Jun-28 03:15N 47°39' W 122°20'0 0.0
2015-Jun-28 03:15N 47°39' W 122°20'0 0.0
2015-Jun-28 02:33N 47°39' W 122°20'0 0.0
2015-Jun-28 02:30N 47°39' W 122°20'0 0.0
2015-Jun-28 01:34N 47°39' W 122°20'0 0.1
2015-Jun-28 01:30N 47°39' W 122°20'0 0.0
2015-Jun-28 00:34N 47°39' W 122°20'0 0.1
2015-Jun-28 00:29N 47°39' W 122°20'0 0.0
2015-Jun-27 23:33N 47°39' W 122°20'0 0.0
2015-Jun-27 23:24N 47°39' W 122°20'0 0.0
2015-Jun-27 22:33N 47°39' W 122°20'0 0.0
2015-Jun-27 22:33N 47°39' W 122°20'0 0.0
2015-Jun-27 21:33N 47°39' W 122°20'0 0.0
2015-Jun-27 21:33N 47°39' W 122°20'0 0.0
2015-Jun-27 20:33N 47°39' W 122°20'0 0.0
2015-Jun-27 20:33N 47°39' W 122°20'0 0.0
2015-Jun-27 19:22N 47°39' W 122°20'0 0.0
2015-Jun-27 19:21N 47°39' W 122°20'0 0.0
2015-Jun-26 22:35N 47°39' W 122°20'0 0.0
2015-Jun-26 22:33N 47°39' W 122°20'0 0.1
2015-Jun-26 22:30N 47°39' W 122°20'0 0.0
2015-Jun-26 21:33N 47°39' W 122°20'0 0.0
2015-Jun-26 21:29N 47°39' W 122°20'0 0.0
2015-Jun-26 20:33N 47°39' W 122°20'0 0.1
2015-Jun-26 20:29N 47°39' W 122°20'0 0.0
2015-Jun-26 19:33N 47°39' W 122°20'0 0.0
2015-Jun-26 19:29N 47°39' W 122°20'0 0.0
2015-Jun-26 18:31N 47°39' W 122°20'0 0.1
2015-Jun-26 18:28N 47°39' W 122°20'0 0.0
2015-Jun-26 17:33N 47°39' W 122°20'0 0.0
2015-Jun-26 17:32N 47°39' W 122°20'0 0.0
2015-Jun-26 16:32N 47°39' W 122°20'0 0.0
2015-Jun-26 16:31N 47°39' W 122°20'2 1.6
2015-Jun-26 15:33N 47°40' W 122°22'0 3.8
2015-Jun-26 15:32N 47°40' W 122°23'1 1.0
2015-Jun-26 14:33N 47°40' W 122°24'0 0.2
2015-Jun-26 14:32N 47°40' W 122°24'4 4.1
2015-Jun-26 13:33N 47°36' W 122°27'0 5.6
2015-Jun-26 13:31N 47°36' W 122°27'7 7.5
2015-Jun-26 12:33N 47°29' W 122°30'9 8.5
2015-Jun-26 11:33N 47°21' W 122°32'7 6.8
2015-Jun-26 10:28N 47°16' W 122°24'2 2.1
2015-Jun-26 09:33N 47°17' W 122°26'6 6.2
2015-Jun-26 08:33N 47°23' W 122°22'4 7.0
2015-Jun-26 08:01N 47°26' W 122°25'3 7.4
2015-Jun-26 07:33N 47°30' W 122°26'0 7.2
2015-Jun-26 07:30N 47°30' W 122°26'7 6.9
2015-Jun-26 06:33N 47°36' W 122°28'1 6.0
2015-Jun-26 06:23N 47°37' W 122°28'2 7.1
2015-Jun-26 06:03N 47°40' W 122°28'3 4.0
2015-Jun-26 05:18N 47°40' W 122°23'2 3.1
2015-Jun-26 04:33N 47°39' W 122°20'0 2.6
2015-Jun-26 04:32N 47°39' W 122°20'0 0.0
2015-Jun-26 03:33N 47°39' W 122°20'0 0.2
2015-Jun-26 03:31N 47°39' W 122°20'0 0.0
2015-Jun-26 02:34N 47°39' W 122°20'0 0.1
2015-Jun-26 02:30N 47°39' W 122°20'0 0.0
2015-Jun-26 01:31N 47°39' W 122°20'0 0.0
2015-Jun-26 01:29N 47°39' W 122°20'0 0.0
2015-Jun-26 00:33N 47°39' W 122°20'0 0.0
2015-Jun-26 00:29N 47°39' W 122°20'0 0.0
2015-Jun-25 23:22N 47°39' W 122°20'0 0.0
2015-Jun-25 23:18N 47°39' W 122°20'0 0.0
2015-Jun-25 22:32N 47°39' W 122°20'0 0.0
2015-Jun-25 22:32N 47°39' W 122°20'0 0.0
2015-Jun-25 21:33N 47°39' W 122°20'0 0.0
2015-Jun-25 21:32N 47°39' W 122°20'0 0.0
2015-Jun-25 20:33N 47°39' W 122°20'0 0.5
2015-Jun-25 20:30N 47°39' W 122°20'3 3.6
2015-Jun-25 19:33N 47°39' W 122°15'0 6.9
2015-Jun-25 19:33N 47°39' W 122°15'1 0.5
2015-Jun-25 18:33N 47°39' W 122°16'0 0.0
2015-Jun-25 18:33N 47°39' W 122°16'0 0.0
2015-Jun-25 17:29N 47°39' W 122°16'0 1.3
2015-Jun-25 17:28N 47°39' W 122°16'1 0.9
2015-Jun-25 16:32N 47°38' W 122°15'0 0.0
2015-Jun-25 16:30N 47°38' W 122°15'1 1.0
2015-Jun-25 15:22N 47°39' W 122°17'0 0.2
2015-Jun-25 15:16N 47°39' W 122°17'0 0.1
2015-Jun-25 14:33N 47°39' W 122°17'0 0.7
2015-Jun-25 14:33N 47°39' W 122°17'0 0.3
2015-Jun-25 13:34N 47°39' W 122°16'0 1.9
2015-Jun-25 13:31N 47°39' W 122°16'0 0.1
2015-Jun-25 12:33N 47°39' W 122°16'0 0.0
2015-Jun-25 12:30N 47°39' W 122°16'3 3.1
2015-Jun-25 11:33N 47°39' W 122°20'0 0.0
2015-Jun-25 11:30N 47°39' W 122°20'0 0.0
2015-Jun-25 10:33N 47°39' W 122°20'0 0.0
2015-Jun-25 10:29N 47°39' W 122°20'0 0.0
2015-Jun-25 09:33N 47°39' W 122°20'0 0.0
2015-Jun-25 09:29N 47°39' W 122°20'0 0.0
2015-Jun-25 08:30N 47°39' W 122°20'0 0.0
2015-Jun-25 08:29N 47°39' W 122°20'0 0.0
2015-Jun-25 07:32N 47°39' W 122°20'0 0.1
2015-Jun-25 07:28N 47°39' W 122°20'0 0.0
2015-Jun-25 06:32N 47°39' W 122°20'0 0.1
2015-Jun-25 06:30N 47°39' W 122°20'0 0.0
2015-Jun-25 05:47N 47°39' W 122°20'0 0.0
2015-Jun-25 05:29N 47°39' W 122°20'0 0.0
2015-Jun-25 04:33N 47°39' W 122°20'0 0.0
2015-Jun-25 04:26N 47°39' W 122°20'0 0.0
2015-Jun-25 03:33N 47°39' W 122°20'0 0.0
2015-Jun-25 03:25N 47°39' W 122°20'0 0.0
2015-Jun-25 02:33N 47°39' W 122°20'0 0.0
2015-Jun-25 02:25N 47°39' W 122°20'0 0.0
2015-Jun-25 01:32N 47°39' W 122°20'0 0.0
2015-Jun-25 01:29N 47°39' W 122°20'0 0.0
2015-Jun-25 00:31N 47°39' W 122°20'0 0.0
2015-Jun-25 00:12N 47°39' W 122°20'0 0.0
2015-Jun-24 23:33N 47°39' W 122°20'0 0.0
2015-Jun-24 23:32N 47°39' W 122°20'0 0.0
2015-Jun-24 22:33N 47°39' W 122°20'0 0.0
2015-Jun-24 22:31N 47°39' W 122°20'0 0.0
2015-Jun-24 21:33N 47°39' W 122°20'0 0.0
2015-Jun-24 21:30N 47°39' W 122°20'0 0.0
2015-Jun-24 20:21N 47°39' W 122°20'0 0.0
2015-Jun-24 20:19N 47°39' W 122°20'0 0.0
2015-Jun-24 19:32N 47°39' W 122°20'0 0.2
2015-Jun-24 19:30N 47°39' W 122°20'0 0.0
2015-Jun-24 18:33N 47°39' W 122°20'0 0.0
2015-Jun-24 18:30N 47°39' W 122°20'0 0.0
2015-Jun-24 17:33N 47°39' W 122°20'0 0.0
2015-Jun-24 17:29N 47°39' W 122°20'0 0.0
2015-Jun-24 16:30N 47°39' W 122°20'0 0.0
2015-Jun-24 16:28N 47°39' W 122°20'0 0.0
2015-Jun-24 15:33N 47°39' W 122°20'0 0.0
2015-Jun-24 15:31N 47°39' W 122°20'0 0.0
2015-Jun-24 14:32N 47°39' W 122°20'0 0.3
2015-Jun-24 14:31N 47°39' W 122°20'0 0.0
2015-Jun-24 13:33N 47°39' W 122°20'0 0.0
2015-Jun-24 13:30N 47°39' W 122°20'0 0.0
2015-Jun-24 12:33N 47°39' W 122°20'0 0.0
2015-Jun-24 12:30N 47°39' W 122°20'0 0.0
2015-Jun-24 11:30N 47°39' W 122°20'0 0.0
2015-Jun-24 11:29N 47°39' W 122°20'0 0.0
2015-Jun-24 10:33N 47°39' W 122°20'0 0.0
2015-Jun-24 10:28N 47°39' W 122°20'0 0.0
2015-Jun-24 09:34N 47°39' W 122°20'0 0.0
2015-Jun-24 09:33N 47°39' W 122°20'0 0.0
2015-Jun-24 08:32N 47°39' W 122°20'0 0.0
2015-Jun-24 08:32N 47°39' W 122°20'0 0.0
2015-Jun-24 07:33N 47°39' W 122°20'0 0.3
2015-Jun-24 07:32N 47°39' W 122°20'0 0.0
2015-Jun-24 06:32N 47°39' W 122°20'0 0.0
2015-Jun-24 06:30N 47°39' W 122°20'0 0.0
2015-Jun-24 06:00N 47°39' W 122°20'0 0.0
2015-Jun-24 05:33N 47°39' W 122°20'0 0.0
2015-Jun-24 04:26N 47°39' W 122°20'0 0.0
2015-Jun-24 04:23N 47°39' W 122°20'0 0.0
2015-Jun-24 03:27N 47°39' W 122°20'0 0.0
2015-Jun-24 03:27N 47°39' W 122°20'0 0.0
2015-Jun-24 02:32N 47°39' W 122°20'0 0.0
2015-Jun-24 02:32N 47°39' W 122°20'0 0.0
2015-Jun-24 01:33N 47°39' W 122°20'0 0.2
2015-Jun-24 01:32N 47°39' W 122°20'0 0.0
2015-Jun-24 00:33N 47°39' W 122°20'0 0.0
2015-Jun-24 00:31N 47°39' W 122°20'0 0.0
2015-Jun-23 23:33N 47°39' W 122°20'0 0.0
2015-Jun-23 23:30N 47°39' W 122°20'0 0.0
2015-Jun-23 22:33N 47°39' W 122°20'0 0.0
2015-Jun-23 22:30N 47°39' W 122°20'0 0.0
2015-Jun-23 21:33N 47°39' W 122°20'0 0.0
2015-Jun-23 21:30N 47°39' W 122°20'0 0.0
2015-Jun-23 20:33N 47°39' W 122°20'0 0.0
2015-Jun-23 20:30N 47°39' W 122°20'0 0.0
2015-Jun-23 19:33N 47°39' W 122°20'0 0.0
2015-Jun-23 19:30N 47°39' W 122°20'0 0.0
2015-Jun-23 19:05N 47°39' W 122°20'0 0.0
2015-Jun-23 19:05N 47°39' W 122°20'  
Track history (hours):
 
Tides and Currents Weather Stations Pressure Air Temp Water Temp Dewpoint Dewpoint Depression Visibility Wind Speed Wind Dir Waves Ship Positions

Solana

Owner: TAURUS MARINE, SAN FRANCISCO, CA. More information available from US FCC via Universal Licensing System and Coast Guard Vessel Documentation Center.

Last reported at 2015-Jul-03 18:19 UTC. Time now 2015-Jul-04 08:28 UTC.
Position N 47°40' W 122°24'.

Type: Towing. MMSI: 366969740.

Date/timePositionNaut miles runAvg speedWind from/ knotsBaromVisibWave heightAir tempDewpointWater temp
2015-Jul-03 18:19N 47°40' W 122°24'4 4.7
2015-Jul-03 17:28N 47°36' W 122°23'2 0.6
2015-Jul-03 14:33N 47°35' W 122°22'6 6.2
2015-Jul-03 13:33N 47°40' W 122°26'2 2.3
2015-Jul-03 12:33N 47°40' W 122°23'4 4.3
2015-Jul-03 11:33N 47°39' W 122°16'1 0.1
2015-Jul-03 03:33N 47°39' W 122°18'1 1.1
2015-Jul-03 02:26N 47°39' W 122°20'3 3.7
2015-Jul-03 01:32N 47°40' W 122°24'6 6.5
2015-Jul-03 00:33N 47°34' W 122°27'8 8.4
2015-Jul-02 23:33N 47°26' W 122°31'8 8.2
2015-Jul-02 22:33N 47°18' W 122°29'2 2.2
2015-Jul-02 21:33N 47°17' W 122°26'8 7.6
2015-Jul-02 20:33N 47°24' W 122°32'8 7.9
2015-Jul-02 19:33N 47°31' W 122°29'9 8.6
2015-Jul-02 18:33N 47°40' W 122°27'3 2.2
2015-Jul-02 17:20N 47°40' W 122°23'2 1.3
2015-Jul-02 15:33N 47°39' W 122°20'0 0.0
2015-Jul-01 23:33N 47°39' W 122°20'3 2.7
2015-Jul-01 22:33N 47°39' W 122°16'0 0.0
2015-Jul-01 21:33N 47°39' W 122°16'0 0.0
2015-Jul-01 20:33N 47°39' W 122°16'0 0.1
2015-Jul-01 19:32N 47°39' W 122°16'0 0.0
2015-Jul-01 18:34N 47°39' W 122°16'0 0.1
2015-Jul-01 17:33N 47°38' W 122°16'0 0.0
2015-Jul-01 16:33N 47°38' W 122°16'0 0.2
2015-Jul-01 15:33N 47°38' W 122°15'0 0.1
2015-Jul-01 14:33N 47°38' W 122°15'1 0.6
2015-Jul-01 13:33N 47°39' W 122°16'1 1.3
2015-Jul-01 12:33N 47°39' W 122°18'2 1.5
2015-Jul-01 11:23N 47°39' W 122°20'0 0.0
2015-Jul-01 10:33N 47°39' W 122°20'3 3.0
2015-Jul-01 09:33N 47°39' W 122°16'2 2.1
2015-Jul-01 08:32N 47°39' W 122°19'3 3.3
2015-Jul-01 07:33N 47°40' W 122°24'3 2.5
2015-Jul-01 06:33N 47°38' W 122°27'8 7.5
2015-Jul-01 05:33N 47°31' W 122°29'8 8.2
2015-Jul-01 04:33N 47°23' W 122°32'9 8.8
2015-Jul-01 03:30N 47°14' W 122°34'6 6.5
2015-Jul-01 02:33N 47°09' W 122°38'0 0.0
2015-Jul-01 00:19N 47°09' W 122°38'0 0.0
2015-Jun-30 23:33N 47°09' W 122°38'0 0.0
2015-Jun-30 22:25N 47°09' W 122°38'0 0.0
2015-Jun-30 21:33N 47°09' W 122°38'0 0.0
2015-Jun-30 20:25N 47°09' W 122°38'0 0.0
2015-Jun-30 19:33N 47°09' W 122°38'1 0.2
2015-Jun-30 17:20N 47°08' W 122°39'2 3.0
2015-Jun-30 16:32N 47°10' W 122°38'6 6.5
2015-Jun-30 15:33N 47°16' W 122°33'6 6.0
2015-Jun-30 14:36N 47°22' W 122°33'0 8.1
2015-Jun-30 14:33N 47°22' W 122°32'5 7.7
2015-Jun-30 13:56N 47°27' W 122°32'3 7.6
2015-Jun-30 13:33N 47°29' W 122°30'1 8.1
2015-Jun-30 13:26N 47°30' W 122°29'7 8.0
2015-Jun-30 12:33N 47°37' W 122°28'0 8.5
2015-Jun-30 12:30N 47°37' W 122°28'4 4.1
2015-Jun-30 11:33N 47°40' W 122°24'0 0.2
2015-Jun-30 11:29N 47°40' W 122°24'4 4.6
2015-Jun-30 10:33N 47°39' W 122°18'0 6.2
2015-Jun-30 10:29N 47°39' W 122°17'2 1.8
2015-Jun-30 09:29N 47°39' W 122°20'0 1.9
2015-Jun-30 09:13N 47°39' W 122°20'0 0.0
2015-Jun-30 08:33N 47°39' W 122°20'0 0.0
2015-Jun-30 08:33N 47°39' W 122°20'0 0.0
2015-Jun-30 07:33N 47°39' W 122°20'0 0.0
2015-Jun-30 07:33N 47°39' W 122°20'0 0.0
2015-Jun-30 06:33N 47°39' W 122°20'0 0.0
2015-Jun-30 06:33N 47°39' W 122°20'0 0.0
2015-Jun-30 06:08N 47°39' W 122°20'0 0.0
2015-Jun-30 05:33N 47°39' W 122°20'0 0.0
2015-Jun-30 04:25N 47°39' W 122°20'0 0.0
2015-Jun-30 04:22N 47°39' W 122°20'0 0.0
2015-Jun-30 03:33N 47°39' W 122°20'0 0.0
2015-Jun-30 03:31N 47°39' W 122°20'0 0.0
2015-Jun-30 02:33N 47°39' W 122°20'0 0.0
2015-Jun-30 02:31N 47°39' W 122°20'0 0.0
2015-Jun-30 01:33N 47°39' W 122°20'0 0.0
2015-Jun-30 01:30N 47°39' W 122°20'0 0.0
2015-Jun-30 00:33N 47°39' W 122°20'0 0.1
2015-Jun-30 00:29N 47°39' W 122°20'0 0.0
2015-Jun-29 23:33N 47°39' W 122°20'0 0.3
2015-Jun-29 23:32N 47°39' W 122°20'0 0.0
2015-Jun-29 22:33N 47°39' W 122°20'0 0.0
2015-Jun-29 22:19N 47°39' W 122°20'0 0.5
2015-Jun-29 21:33N 47°39' W 122°20'1 4.2
2015-Jun-29 21:22N 47°39' W 122°19'2 2.2
2015-Jun-29 20:34N 47°39' W 122°16'0 4.6
2015-Jun-29 20:33N 47°39' W 122°16'0 0.1
2015-Jun-29 19:34N 47°39' W 122°16'0 0.2
2015-Jun-29 19:32N 47°39' W 122°16'0 0.3
2015-Jun-29 18:31N 47°39' W 122°16'0 0.0
2015-Jun-29 18:27N 47°39' W 122°16'0 0.0
2015-Jun-29 17:32N 47°39' W 122°16'0 0.6
2015-Jun-29 17:26N 47°39' W 122°16'3 3.0
2015-Jun-29 16:33N 47°39' W 122°20'0 0.0
2015-Jun-29 16:32N 47°39' W 122°20'0 0.0
2015-Jun-29 15:33N 47°39' W 122°20'0 0.0
2015-Jun-29 15:32N 47°39' W 122°20'0 0.0
2015-Jun-29 14:33N 47°39' W 122°20'0 0.0
2015-Jun-29 14:32N 47°39' W 122°20'0 0.0
2015-Jun-29 13:33N 47°39' W 122°20'0 0.0
2015-Jun-29 13:32N 47°39' W 122°20'0 0.0
2015-Jun-29 12:31N 47°39' W 122°20'0 0.0
2015-Jun-29 12:31N 47°39' W 122°20'0 0.0
2015-Jun-29 11:33N 47°39' W 122°20'0 0.0
2015-Jun-29 11:31N 47°39' W 122°20'0 0.0
2015-Jun-29 10:32N 47°39' W 122°20'0 0.0
2015-Jun-29 10:31N 47°39' W 122°20'0 0.0
2015-Jun-29 09:33N 47°39' W 122°20'0 0.0
2015-Jun-29 09:31N 47°39' W 122°20'0 0.0
2015-Jun-29 08:33N 47°39' W 122°20'0 0.1
2015-Jun-29 08:26N 47°39' W 122°20'0 0.0
2015-Jun-29 01:31N 47°39' W 122°20'0 0.0
2015-Jun-29 00:33N 47°39' W 122°20'2 0.4
2015-Jun-28 19:29N 47°39' W 122°17'2 1.7
2015-Jun-28 18:33N 47°38' W 122°15'2 1.5
2015-Jun-28 17:33N 47°39' W 122°17'2 0.2
2015-Jun-28 05:15N 47°39' W 122°20'0 0.0
2015-Jun-28 04:47N 47°39' W 122°20'0 0.0
2015-Jun-28 04:33N 47°39' W 122°20'0 0.0
2015-Jun-28 04:31N 47°39' W 122°20'0 0.0
2015-Jun-28 03:15N 47°39' W 122°20'0 0.0
2015-Jun-28 03:15N 47°39' W 122°20'0 0.0
2015-Jun-28 02:33N 47°39' W 122°20'0 0.0
2015-Jun-28 02:30N 47°39' W 122°20'0 0.0
2015-Jun-28 01:34N 47°39' W 122°20'0 0.1
2015-Jun-28 01:30N 47°39' W 122°20'0 0.0
2015-Jun-28 00:34N 47°39' W 122°20'0 0.1
2015-Jun-28 00:29N 47°39' W 122°20'0 0.0
2015-Jun-27 23:33N 47°39' W 122°20'0 0.0
2015-Jun-27 23:24N 47°39' W 122°20'0 0.0
2015-Jun-27 22:33N 47°39' W 122°20'0 0.0
2015-Jun-27 22:33N 47°39' W 122°20'0 0.0
2015-Jun-27 21:33N 47°39' W 122°20'0 0.0
2015-Jun-27 21:33N 47°39' W 122°20'0 0.0
2015-Jun-27 20:33N 47°39' W 122°20'0 0.0
2015-Jun-27 20:33N 47°39' W 122°20'0 0.0
2015-Jun-27 19:22N 47°39' W 122°20'0 0.0
2015-Jun-27 19:21N 47°39' W 122°20'0 0.0
2015-Jun-26 22:35N 47°39' W 122°20'0 0.0
2015-Jun-26 22:33N 47°39' W 122°20'0 0.1
2015-Jun-26 22:30N 47°39' W 122°20'0 0.0
2015-Jun-26 21:33N 47°39' W 122°20'0 0.0
2015-Jun-26 21:29N 47°39' W 122°20'0 0.0
2015-Jun-26 20:33N 47°39' W 122°20'0 0.1
2015-Jun-26 20:29N 47°39' W 122°20'0 0.0
2015-Jun-26 19:33N 47°39' W 122°20'0 0.0
2015-Jun-26 19:29N 47°39' W 122°20'0 0.0
2015-Jun-26 18:31N 47°39' W 122°20'0 0.1
2015-Jun-26 18:28N 47°39' W 122°20'0 0.0
2015-Jun-26 17:33N 47°39' W 122°20'0 0.0
2015-Jun-26 17:32N 47°39' W 122°20'0 0.0
2015-Jun-26 16:32N 47°39' W 122°20'0 0.0
2015-Jun-26 16:31N 47°39' W 122°20'2 1.6
2015-Jun-26 15:33N 47°40' W 122°22'0 3.8
2015-Jun-26 15:32N 47°40' W 122°23'1 1.0
2015-Jun-26 14:33N 47°40' W 122°24'0 0.2
2015-Jun-26 14:32N 47°40' W 122°24'4 4.1
2015-Jun-26 13:33N 47°36' W 122°27'0 5.6
2015-Jun-26 13:31N 47°36' W 122°27'7 7.5
2015-Jun-26 12:33N 47°29' W 122°30'9 8.5
2015-Jun-26 11:33N 47°21' W 122°32'7 6.8
2015-Jun-26 10:28N 47°16' W 122°24'2 2.1
2015-Jun-26 09:33N 47°17' W 122°26'6 6.2
2015-Jun-26 08:33N 47°23' W 122°22'4 7.0
2015-Jun-26 08:01N 47°26' W 122°25'3 7.4
2015-Jun-26 07:33N 47°30' W 122°26'0 7.2
2015-Jun-26 07:30N 47°30' W 122°26'7 6.9
2015-Jun-26 06:33N 47°36' W 122°28'1 6.0
2015-Jun-26 06:23N 47°37' W 122°28'2 7.1
2015-Jun-26 06:03N 47°40' W 122°28'3 4.0
2015-Jun-26 05:18N 47°40' W 122°23'2 3.1
2015-Jun-26 04:33N 47°39' W 122°20'0 2.6
2015-Jun-26 04:32N 47°39' W 122°20'0 0.0
2015-Jun-26 03:33N 47°39' W 122°20'0 0.2
2015-Jun-26 03:31N 47°39' W 122°20'0 0.0
2015-Jun-26 02:34N 47°39' W 122°20'0 0.1
2015-Jun-26 02:30N 47°39' W 122°20'0 0.0
2015-Jun-26 01:31N 47°39' W 122°20'0 0.0
2015-Jun-26 01:29N 47°39' W 122°20'0 0.0
2015-Jun-26 00:33N 47°39' W 122°20'0 0.0
2015-Jun-26 00:29N 47°39' W 122°20'0 0.0
2015-Jun-25 23:22N 47°39' W 122°20'0 0.0
2015-Jun-25 23:18N 47°39' W 122°20'0 0.0
2015-Jun-25 22:32N 47°39' W 122°20'0 0.0
2015-Jun-25 22:32N 47°39' W 122°20'0 0.0
2015-Jun-25 21:33N 47°39' W 122°20'0 0.0
2015-Jun-25 21:32N 47°39' W 122°20'0 0.0
2015-Jun-25 20:33N 47°39' W 122°20'0 0.5
2015-Jun-25 20:30N 47°39' W 122°20'3 3.6
2015-Jun-25 19:33N 47°39' W 122°15'0 6.9
2015-Jun-25 19:33N 47°39' W 122°15'1 0.5
2015-Jun-25 18:33N 47°39' W 122°16'0 0.0
2015-Jun-25 18:33N 47°39' W 122°16'0 0.0
2015-Jun-25 17:29N 47°39' W 122°16'0 1.3
2015-Jun-25 17:28N 47°39' W 122°16'1 0.9
2015-Jun-25 16:32N 47°38' W 122°15'0 0.0
2015-Jun-25 16:30N 47°38' W 122°15'1 1.0
2015-Jun-25 15:22N 47°39' W 122°17'0 0.2
2015-Jun-25 15:16N 47°39' W 122°17'0 0.1
2015-Jun-25 14:33N 47°39' W 122°17'0 0.7
2015-Jun-25 14:33N 47°39' W 122°17'0 0.3
2015-Jun-25 13:34N 47°39' W 122°16'0 1.9
2015-Jun-25 13:31N 47°39' W 122°16'0 0.1
2015-Jun-25 12:33N 47°39' W 122°16'0 0.0
2015-Jun-25 12:30N 47°39' W 122°16'3 3.1
2015-Jun-25 11:33N 47°39' W 122°20'0 0.0
2015-Jun-25 11:30N 47°39' W 122°20'0 0.0
2015-Jun-25 10:33N 47°39' W 122°20'0 0.0
2015-Jun-25 10:29N 47°39' W 122°20'0 0.0
2015-Jun-25 09:33N 47°39' W 122°20'0 0.0
2015-Jun-25 09:29N 47°39' W 122°20'0 0.0
2015-Jun-25 08:30N 47°39' W 122°20'0 0.0
2015-Jun-25 08:29N 47°39' W 122°20'0 0.0
2015-Jun-25 07:32N 47°39' W 122°20'0 0.1
2015-Jun-25 07:28N 47°39' W 122°20'0 0.0
2015-Jun-25 06:32N 47°39' W 122°20'0 0.1
2015-Jun-25 06:30N 47°39' W 122°20'0 0.0
2015-Jun-25 05:47N 47°39' W 122°20'0 0.0
2015-Jun-25 05:29N 47°39' W 122°20'0 0.0
2015-Jun-25 04:33N 47°39' W 122°20'0 0.0
2015-Jun-25 04:26N 47°39' W 122°20'0 0.0
2015-Jun-25 03:33N 47°39' W 122°20'0 0.0
2015-Jun-25 03:25N 47°39' W 122°20'0 0.0
2015-Jun-25 02:33N 47°39' W 122°20'0 0.0
2015-Jun-25 02:25N 47°39' W 122°20'0 0.0
2015-Jun-25 01:32N 47°39' W 122°20'0 0.0
2015-Jun-25 01:29N 47°39' W 122°20'0 0.0
2015-Jun-25 00:31N 47°39' W 122°20'0 0.0
2015-Jun-25 00:12N 47°39' W 122°20'0 0.0
2015-Jun-24 23:33N 47°39' W 122°20'0 0.0
2015-Jun-24 23:32N 47°39' W 122°20'0 0.0
2015-Jun-24 22:33N 47°39' W 122°20'0 0.0
2015-Jun-24 22:31N 47°39' W 122°20'0 0.0
2015-Jun-24 21:33N 47°39' W 122°20'0 0.0
2015-Jun-24 21:30N 47°39' W 122°20'0 0.0
2015-Jun-24 20:21N 47°39' W 122°20'0 0.0
2015-Jun-24 20:19N 47°39' W 122°20'0 0.0
2015-Jun-24 19:32N 47°39' W 122°20'0 0.2
2015-Jun-24 19:30N 47°39' W 122°20'0 0.0
2015-Jun-24 18:33N 47°39' W 122°20'0 0.0
2015-Jun-24 18:30N 47°39' W 122°20'0 0.0
2015-Jun-24 17:33N 47°39' W 122°20'0 0.0
2015-Jun-24 17:29N 47°39' W 122°20'0 0.0
2015-Jun-24 16:30N 47°39' W 122°20'0 0.0
2015-Jun-24 16:28N 47°39' W 122°20'0 0.0
2015-Jun-24 15:33N 47°39' W 122°20'0 0.0
2015-Jun-24 15:31N 47°39' W 122°20'0 0.0
2015-Jun-24 14:32N 47°39' W 122°20'0 0.3
2015-Jun-24 14:31N 47°39' W 122°20'0 0.0
2015-Jun-24 13:33N 47°39' W 122°20'0 0.0
2015-Jun-24 13:30N 47°39' W 122°20'0 0.0
2015-Jun-24 12:33N 47°39' W 122°20'0 0.0
2015-Jun-24 12:30N 47°39' W 122°20'0 0.0
2015-Jun-24 11:30N 47°39' W 122°20'0 0.0
2015-Jun-24 11:29N 47°39' W 122°20'0 0.0
2015-Jun-24 10:33N 47°39' W 122°20'0 0.0
2015-Jun-24 10:28N 47°39' W 122°20'0 0.0
2015-Jun-24 09:34N 47°39' W 122°20'0 0.0
2015-Jun-24 09:33N 47°39' W 122°20'0 0.0
2015-Jun-24 08:32N 47°39' W 122°20'0 0.0
2015-Jun-24 08:32N 47°39' W 122°20'0 0.0
2015-Jun-24 07:33N 47°39' W 122°20'0 0.3
2015-Jun-24 07:32N 47°39' W 122°20'0 0.0
2015-Jun-24 06:32N 47°39' W 122°20'0 0.0
2015-Jun-24 06:30N 47°39' W 122°20'0 0.0
2015-Jun-24 06:00N 47°39' W 122°20'0 0.0
2015-Jun-24 05:33N 47°39' W 122°20'0 0.0
2015-Jun-24 04:26N 47°39' W 122°20'0 0.0
2015-Jun-24 04:23N 47°39' W 122°20'0 0.0
2015-Jun-24 03:27N 47°39' W 122°20'0 0.0
2015-Jun-24 03:27N 47°39' W 122°20'0 0.0
2015-Jun-24 02:32N 47°39' W 122°20'0 0.0
2015-Jun-24 02:32N 47°39' W 122°20'0 0.0
2015-Jun-24 01:33N 47°39' W 122°20'0 0.2
2015-Jun-24 01:32N 47°39' W 122°20'0 0.0
2015-Jun-24 00:33N 47°39' W 122°20'0 0.0
2015-Jun-24 00:31N 47°39' W 122°20'0 0.0
2015-Jun-23 23:33N 47°39' W 122°20'0 0.0
2015-Jun-23 23:30N 47°39' W 122°20'0 0.0
2015-Jun-23 22:33N 47°39' W 122°20'0 0.0
2015-Jun-23 22:30N 47°39' W 122°20'0 0.0
2015-Jun-23 21:33N 47°39' W 122°20'0 0.0
2015-Jun-23 21:30N 47°39' W 122°20'0 0.0
2015-Jun-23 20:33N 47°39' W 122°20'0 0.0
2015-Jun-23 20:30N 47°39' W 122°20'0 0.0
2015-Jun-23 19:33N 47°39' W 122°20'0 0.0
2015-Jun-23 19:30N 47°39' W 122°20'0 0.0
2015-Jun-23 19:05N 47°39' W 122°20'0 0.0
2015-Jun-23 19:05N 47°39' W 122°20'  

Dump ship's entire track history